createdAt,value
2023-05-09T00:01:33.430Z,1.97
2023-05-09T00:03:59.910Z,1.98
2023-05-09T00:06:27.415Z,1.94
2023-05-09T00:08:53.820Z,1.75
2023-05-09T00:11:20.381Z,1.70
2023-05-09T00:13:46.853Z,1.53
2023-05-09T00:16:13.252Z,1.89
2023-05-09T00:18:39.675Z,1.78
2023-05-09T00:21:06.046Z,1.68
2023-05-09T00:23:32.751Z,1.70
2023-05-09T00:25:59.119Z,1.74
2023-05-09T00:28:25.479Z,1.80
2023-05-09T00:30:51.920Z,1.88
2023-05-09T00:33:18.268Z,1.94
2023-05-09T00:35:44.614Z,1.87
2023-05-09T00:38:11.376Z,1.85
2023-05-09T00:40:37.771Z,1.86
2023-05-09T00:43:04.110Z,1.87
2023-05-09T00:45:30.810Z,1.74
2023-05-09T00:47:57.200Z,1.82
2023-05-09T00:50:23.566Z,1.81
2023-05-09T00:52:50.151Z,1.78
2023-05-09T00:55:17.773Z,1.63
2023-05-09T00:57:44.503Z,1.86
2023-05-09T01:00:12.457Z,1.85
2023-05-09T01:02:38.891Z,1.62
2023-05-09T01:05:05.281Z,1.89
2023-05-09T01:07:36.107Z,1.77
2023-05-09T01:10:04.940Z,1.60
2023-05-09T01:12:31.721Z,1.63
2023-05-09T01:14:59.184Z,1.49
2023-05-09T01:17:25.671Z,1.81
2023-05-09T01:19:54.416Z,1.74
2023-05-09T01:22:20.773Z,1.62
2023-05-09T01:24:47.102Z,1.68
2023-05-09T01:27:13.434Z,1.44
2023-05-09T01:29:39.785Z,1.64
2023-05-09T01:32:06.453Z,1.71
2023-05-09T01:34:35.011Z,1.65
2023-05-09T01:37:01.572Z,1.62
2023-05-09T01:39:28.178Z,1.86
2023-05-09T01:41:54.799Z,1.90
2023-05-09T01:44:22.158Z,1.81
2023-05-09T01:46:48.763Z,1.80
2023-05-09T01:49:15.168Z,1.84
2023-05-09T01:51:43.777Z,1.71
2023-05-09T01:54:10.485Z,1.86
2023-05-09T01:56:37.871Z,1.82
2023-05-09T01:59:04.801Z,1.90
2023-05-09T02:01:33.413Z,1.76
2023-05-09T02:04:00.018Z,1.70
2023-05-09T02:06:27.173Z,1.72
2023-05-09T02:08:56.631Z,1.60
2023-05-09T02:11:23.181Z,1.75
2023-05-09T02:13:51.746Z,1.69
2023-05-09T02:16:19.472Z,1.80
2023-05-09T02:18:46.910Z,2.23
2023-05-09T02:21:13.284Z,1.97
2023-05-09T02:23:39.746Z,1.64
2023-05-09T02:26:06.375Z,1.77
2023-05-09T02:28:33.115Z,1.83
2023-05-09T02:31:01.902Z,1.88
2023-05-09T02:33:28.684Z,1.70
2023-05-09T02:35:55.604Z,1.83
2023-05-09T02:38:22.331Z,1.77
2023-05-09T02:40:49.878Z,1.94
2023-05-09T02:43:18.045Z,1.72
2023-05-09T02:45:44.962Z,1.56
2023-05-09T02:48:11.354Z,1.96
2023-05-09T02:50:45.384Z,1.70
2023-05-09T02:53:11.728Z,1.78
2023-05-09T02:55:39.123Z,1.60
2023-05-09T02:58:14.209Z,1.57
2023-05-09T03:00:43.771Z,1.59
2023-05-09T03:03:12.423Z,1.61
2023-05-09T03:05:38.919Z,1.65
2023-05-09T03:08:05.325Z,1.73
2023-05-09T03:10:31.661Z,1.68
2023-05-09T03:12:58.139Z,1.86
2023-05-09T03:15:26.698Z,1.90
2023-05-09T03:17:53.113Z,1.89
2023-05-09T03:20:19.679Z,1.73
2023-05-09T03:22:46.366Z,1.94
2023-05-09T03:25:13.022Z,1.85
2023-05-09T03:27:39.616Z,1.85
2023-05-09T03:30:05.992Z,1.77
2023-05-09T03:32:33.383Z,1.63
2023-05-09T03:34:59.958Z,1.72
2023-05-09T03:37:27.439Z,1.56
2023-05-09T03:39:53.795Z,1.74
2023-05-09T03:42:20.516Z,1.69
2023-05-09T03:44:49.894Z,1.65
2023-05-09T03:47:16.231Z,1.73
2023-05-09T03:49:42.649Z,1.54
2023-05-09T03:52:09.118Z,1.65
2023-05-09T03:54:35.498Z,1.77
2023-05-09T03:57:01.838Z,1.63
2023-05-09T03:59:28.300Z,1.79
2023-05-09T04:01:55.148Z,1.71
2023-05-09T04:04:22.203Z,1.59
2023-05-09T04:06:49.237Z,1.54
2023-05-09T04:09:18.239Z,1.60
2023-05-09T04:11:45.687Z,1.55
2023-05-09T04:14:12.080Z,1.33
2023-05-09T04:16:40.822Z,1.35
2023-05-09T04:19:07.279Z,1.74
2023-05-09T04:21:33.654Z,1.81
2023-05-09T04:24:02.155Z,1.89
2023-05-09T04:26:31.174Z,1.60
2023-05-09T04:28:57.862Z,1.30
2023-05-09T04:31:24.374Z,1.43
2023-05-09T04:33:50.751Z,1.56
2023-05-09T04:36:17.121Z,1.57
2023-05-09T04:38:46.129Z,1.54
2023-05-09T04:41:12.923Z,1.54
2023-05-09T04:43:41.708Z,1.61
2023-05-09T04:46:08.291Z,1.93
2023-05-09T04:48:34.856Z,2.14
2023-05-09T04:51:01.258Z,2.12
2023-05-09T04:53:27.675Z,2.12
2023-05-09T04:55:54.072Z,2.35
2023-05-09T04:58:20.467Z,2.15
2023-05-09T05:00:52.125Z,2.32
2023-05-09T05:03:18.496Z,2.41
2023-05-09T05:05:45.044Z,2.12
2023-05-09T05:08:11.608Z,2.50
2023-05-09T05:10:38.340Z,2.50
2023-05-09T05:13:04.841Z,2.37
2023-05-09T05:15:31.347Z,2.15
2023-05-09T05:17:58.721Z,2.33
2023-05-09T05:20:25.263Z,2.19
2023-05-09T05:22:51.645Z,2.19
2023-05-09T05:25:18.035Z,2.21
2023-05-09T05:27:44.600Z,2.24
2023-05-09T05:30:11.126Z,2.85
2023-05-09T05:32:37.522Z,2.62
2023-05-09T05:35:04.080Z,2.56
2023-05-09T05:37:30.595Z,2.70
2023-05-09T05:39:57.238Z,2.60
2023-05-09T05:42:24.254Z,2.56
2023-05-09T05:44:50.814Z,2.76
2023-05-09T05:47:17.193Z,2.37
2023-05-09T05:49:46.276Z,2.36
2023-05-09T05:52:12.919Z,2.66
2023-05-09T05:54:39.330Z,2.86
2023-05-09T05:57:05.892Z,2.63
2023-05-09T05:59:32.265Z,2.80
2023-05-09T06:01:58.645Z,2.87
2023-05-09T06:04:27.203Z,2.61
2023-05-09T06:06:53.716Z,2.73
2023-05-09T06:09:22.535Z,2.96
2023-05-09T06:11:48.973Z,2.94
2023-05-09T06:14:15.734Z,2.93
2023-05-09T06:16:42.317Z,3.00
2023-05-09T06:19:09.021Z,3.04
2023-05-09T06:21:35.420Z,3.72
2023-05-09T06:24:08.493Z,3.16
2023-05-09T06:26:40.227Z,3.01
2023-05-09T06:29:08.655Z,2.84
2023-05-09T06:31:35.097Z,2.63
2023-05-09T06:34:05.986Z,2.73
2023-05-09T06:36:32.415Z,2.77
2023-05-09T06:38:59.203Z,2.61
2023-05-09T06:41:25.584Z,2.45
2023-05-09T06:43:51.972Z,2.21
2023-05-09T06:46:19.617Z,2.44
2023-05-09T06:48:46.433Z,2.52
2023-05-09T06:51:14.476Z,2.60
2023-05-09T06:53:41.881Z,2.79
2023-05-09T06:56:08.453Z,2.68
2023-05-09T06:58:35.170Z,2.88
2023-05-09T07:01:01.527Z,3.19
2023-05-09T07:03:30.947Z,3.54
2023-05-09T07:05:59.590Z,4.42
2023-05-09T07:08:26.261Z,4.48
2023-05-09T07:10:53.702Z,4.87
2023-05-09T07:13:22.462Z,6.39
2023-05-09T07:15:49.250Z,3.09
2023-05-09T07:18:18.479Z,3.04
2023-05-09T07:20:45.380Z,3.44
2023-05-09T07:23:14.054Z,3.33
2023-05-09T07:25:40.419Z,3.74
2023-05-09T07:28:06.807Z,3.63
2023-05-09T07:30:33.404Z,3.83
2023-05-09T07:32:59.894Z,3.60
2023-05-09T07:35:28.792Z,3.84
2023-05-09T07:37:55.297Z,6.56
2023-05-09T07:40:21.692Z,7.55
2023-05-09T07:42:52.805Z,5.21
2023-05-09T07:45:21.226Z,5.23
2023-05-09T07:47:56.781Z,4.70
2023-05-09T07:50:23.321Z,8.06
2023-05-09T07:52:57.473Z,5.26
2023-05-09T07:55:24.206Z,4.93
2023-05-09T07:57:52.666Z,5.50
2023-05-09T08:00:19.160Z,6.22
2023-05-09T08:02:45.836Z,6.10
2023-05-09T08:05:12.683Z,7.71
2023-05-09T08:07:42.308Z,5.41
2023-05-09T08:10:08.938Z,5.15
2023-05-09T08:12:36.323Z,5.24
2023-05-09T08:15:02.714Z,5.04
2023-05-09T08:17:30.483Z,5.10
2023-05-09T08:19:59.156Z,8.21
2023-05-09T08:22:28.163Z,6.83
2023-05-09T08:24:54.834Z,5.00
2023-05-09T08:27:21.180Z,6.51
2023-05-09T08:29:47.546Z,5.83
2023-05-09T08:32:14.074Z,5.60
2023-05-09T08:34:40.797Z,5.14
2023-05-09T08:37:07.205Z,5.33
2023-05-09T08:39:34.612Z,5.38
2023-05-09T08:42:01.021Z,5.46
2023-05-09T08:44:34.822Z,5.54
2023-05-09T08:47:01.353Z,10.00
2023-05-09T08:49:27.868Z,6.61
2023-05-09T08:51:54.554Z,7.97
2023-05-09T08:54:22.770Z,5.19
2023-05-09T08:56:49.316Z,4.95
2023-05-09T08:59:16.316Z,4.96
2023-05-09T09:01:43.342Z,4.94
2023-05-09T09:04:11.051Z,4.75
2023-05-09T09:06:37.420Z,4.88
2023-05-09T09:09:03.759Z,4.78
2023-05-09T09:11:31.156Z,5.65
2023-05-09T09:13:57.709Z,10.89
2023-05-09T09:16:24.102Z,6.22
2023-05-09T09:18:50.511Z,6.53
2023-05-09T09:21:16.929Z,8.53
2023-05-09T09:23:44.452Z,6.83
2023-05-09T09:26:10.840Z,6.98
2023-05-09T09:28:37.527Z,6.85
2023-05-09T09:31:03.963Z,5.54
2023-05-09T09:33:30.650Z,5.56
2023-05-09T09:35:57.151Z,5.41
2023-05-09T09:38:23.818Z,5.23
2023-05-09T09:40:52.309Z,5.09
2023-05-09T09:43:19.004Z,4.98
2023-05-09T09:45:45.611Z,5.41
2023-05-09T09:48:12.313Z,5.78
2023-05-09T09:50:38.945Z,5.65
2023-05-09T09:53:05.331Z,5.32
2023-05-09T09:55:34.751Z,4.95
2023-05-09T09:58:04.099Z,5.17
2023-05-09T10:00:31.506Z,5.51
2023-05-09T10:02:58.009Z,5.91
2023-05-09T10:05:24.398Z,6.35
2023-05-09T10:07:50.845Z,6.68
2023-05-09T10:10:17.864Z,6.51
2023-05-09T10:12:45.706Z,6.61
2023-05-09T10:15:12.098Z,6.39
2023-05-09T10:17:39.591Z,5.94
2023-05-09T10:20:06.185Z,6.11
2023-05-09T10:22:35.498Z,6.50
2023-05-09T10:25:01.833Z,6.60
2023-05-09T10:27:28.238Z,6.51
2023-05-09T10:29:54.724Z,6.08
2023-05-09T10:32:23.509Z,5.99
2023-05-09T10:34:52.390Z,6.09
2023-05-09T10:37:18.970Z,6.05
2023-05-09T10:39:46.268Z,5.93
2023-05-09T10:44:53.374Z,6.24
2023-05-09T10:47:20.390Z,6.25
2023-05-09T10:52:28.959Z,6.25
2023-05-09T10:54:55.385Z,6.64
2023-05-09T10:57:24.151Z,6.95
2023-05-09T10:59:50.856Z,7.00
2023-05-09T11:02:20.413Z,7.40
2023-05-09T11:04:46.809Z,7.33
2023-05-09T11:07:13.155Z,7.35
2023-05-09T11:09:42.954Z,6.84
2023-05-09T11:12:09.731Z,7.12
2023-05-09T11:14:36.209Z,6.71
2023-05-09T11:17:05.934Z,6.54
2023-05-09T11:19:33.392Z,7.34
2023-05-09T11:22:02.596Z,7.12
2023-05-09T11:24:29.099Z,6.78
2023-05-09T11:26:55.732Z,6.48
2023-05-09T11:29:22.426Z,6.35
2023-05-09T11:31:54.761Z,6.38
2023-05-09T11:34:21.308Z,6.41
2023-05-09T11:36:47.950Z,6.29
2023-05-09T11:39:14.357Z,6.34
2023-05-09T11:41:42.845Z,6.51
2023-05-09T11:44:09.261Z,6.72
2023-05-09T11:46:38.048Z,6.80
2023-05-09T11:49:04.431Z,6.80
2023-05-09T11:51:35.963Z,6.83
2023-05-09T11:54:02.554Z,6.82
2023-05-09T11:56:31.297Z,6.74
2023-05-09T11:58:58.998Z,6.79
2023-05-09T12:01:25.396Z,7.20
2023-05-09T12:03:51.846Z,7.29
2023-05-09T12:06:20.618Z,7.67
2023-05-09T12:08:48.335Z,6.98
2023-05-09T12:11:15.853Z,6.83
2023-05-09T12:13:42.590Z,6.82
2023-05-09T12:16:09.477Z,6.99
2023-05-09T12:18:39.225Z,7.01
2023-05-09T12:21:06.350Z,7.03
2023-05-09T12:23:32.941Z,14.78
2023-05-09T12:26:02.194Z,16.73
2023-05-09T12:28:28.576Z,9.26
2023-05-09T12:30:55.062Z,7.62
2023-05-09T12:33:21.436Z,8.76
2023-05-09T12:35:48.409Z,14.17
2023-05-09T12:38:15.133Z,11.27
2023-05-09T12:40:42.133Z,8.04
2023-05-09T12:43:08.804Z,7.62
2023-05-09T12:45:35.237Z,8.54
2023-05-09T12:48:01.717Z,9.19
2023-05-09T12:50:28.327Z,7.33
2023-05-09T12:53:02.635Z,6.82
2023-05-09T12:55:33.137Z,7.05
2023-05-09T12:57:59.552Z,6.88
2023-05-09T13:00:25.982Z,7.59
2023-05-09T13:02:54.905Z,7.27
2023-05-09T13:05:21.595Z,7.08
2023-05-09T13:07:47.985Z,6.82
2023-05-09T13:10:14.454Z,7.30
2023-05-09T13:12:41.012Z,7.09
2023-05-09T13:15:09.615Z,7.76
2023-05-09T13:17:35.986Z,7.59
2023-05-09T13:20:02.346Z,7.76
2023-05-09T13:22:30.999Z,7.60
2023-05-09T13:24:57.386Z,7.49
2023-05-09T13:27:26.142Z,7.72
2023-05-09T13:29:53.630Z,7.71
2023-05-09T13:32:21.375Z,7.69
2023-05-09T13:34:51.956Z,7.34
2023-05-09T13:37:18.418Z,7.27
2023-05-09T13:39:45.341Z,7.76
2023-05-09T13:42:11.768Z,7.62
2023-05-09T13:44:38.502Z,7.79
2023-05-09T13:47:05.097Z,8.10
2023-05-09T13:49:31.543Z,7.66
2023-05-09T13:51:59.605Z,7.70
2023-05-09T13:54:27.038Z,7.83
2023-05-09T13:56:53.878Z,8.43
2023-05-09T13:59:21.647Z,8.79
2023-05-09T14:01:48.092Z,8.87
2023-05-09T14:04:15.064Z,8.68
2023-05-09T14:06:41.673Z,9.13
2023-05-09T14:09:08.677Z,9.48
2023-05-09T14:11:35.286Z,9.19
2023-05-09T14:14:01.778Z,7.89
2023-05-09T14:16:29.316Z,5.13
2023-05-09T14:18:55.956Z,4.67
2023-05-09T14:21:22.355Z,4.51
2023-05-09T14:23:48.698Z,4.23
2023-05-09T14:26:15.042Z,3.64
2023-05-09T14:28:41.492Z,3.36
2023-05-09T14:31:08.144Z,3.28
2023-05-09T14:33:36.850Z,3.14
2023-05-09T14:36:03.341Z,2.99
2023-05-09T14:38:30.720Z,2.86
2023-05-09T14:40:57.495Z,3.06
2023-05-09T14:43:27.632Z,2.70
2023-05-09T14:45:54.585Z,3.13
2023-05-09T14:48:28.392Z,3.08
2023-05-09T14:50:55.000Z,2.92
2023-05-09T14:53:21.359Z,3.26
2023-05-09T14:55:48.062Z,3.19
2023-05-09T14:58:14.524Z,3.30
2023-05-09T15:00:41.496Z,3.15
2023-05-09T15:03:07.991Z,2.99
2023-05-09T15:05:36.608Z,3.30
2023-05-09T15:08:02.999Z,3.20
2023-05-09T15:10:29.368Z,3.14
2023-05-09T15:12:56.090Z,3.40
2023-05-09T15:15:22.485Z,3.70
2023-05-09T15:17:48.952Z,3.91
2023-05-09T15:20:15.942Z,4.17
2023-05-09T15:22:43.132Z,4.51
2023-05-09T15:25:09.561Z,4.30
2023-05-09T15:27:36.082Z,4.29
2023-05-09T15:30:02.818Z,4.54
2023-05-09T15:32:29.178Z,4.33
2023-05-09T15:34:55.635Z,4.59
2023-05-09T15:37:24.602Z,4.82
2023-05-09T15:39:51.163Z,5.08
2023-05-09T15:42:17.675Z,4.98
2023-05-09T15:44:46.231Z,5.06
2023-05-09T15:47:12.604Z,4.82
2023-05-09T15:49:38.956Z,4.67
2023-05-09T15:52:05.743Z,5.02
2023-05-09T15:54:34.489Z,4.63
2023-05-09T15:57:00.981Z,4.23
2023-05-09T15:59:28.341Z,4.12
2023-05-09T16:01:54.865Z,3.80
2023-05-09T16:04:22.308Z,3.79
2023-05-09T16:06:48.680Z,3.58
2023-05-09T16:09:15.073Z,3.01
2023-05-09T16:11:41.495Z,3.07
2023-05-09T16:14:09.961Z,2.82
2023-05-09T16:16:40.741Z,2.56
2023-05-09T16:19:09.534Z,2.43
2023-05-09T16:21:39.040Z,2.29
2023-05-09T16:24:05.500Z,2.38
2023-05-09T16:26:31.876Z,2.07
2023-05-09T16:28:58.255Z,2.16
2023-05-09T16:31:25.010Z,2.11
2023-05-09T16:33:51.402Z,1.91
2023-05-09T16:36:17.850Z,1.98
2023-05-09T16:38:44.365Z,1.87
2023-05-09T16:41:10.910Z,1.83
2023-05-09T16:43:37.899Z,1.75
2023-05-09T16:46:04.516Z,1.77
2023-05-09T16:48:30.951Z,1.61
2023-05-09T16:50:57.311Z,1.49
2023-05-09T16:53:24.489Z,1.23
2023-05-09T16:55:52.343Z,1.29
2023-05-09T16:58:19.958Z,1.11
2023-05-09T17:00:46.587Z,1.09
2023-05-09T17:03:12.955Z,1.09
2023-05-09T17:05:39.677Z,0.94
2023-05-09T17:08:06.390Z,1.02
2023-05-09T17:10:33.177Z,0.88
2023-05-09T17:13:00.637Z,1.05
2023-05-09T17:15:27.062Z,1.04
2023-05-09T17:17:53.737Z,1.01
2023-05-09T17:20:22.596Z,1.06
2023-05-09T17:22:49.464Z,1.13
2023-05-09T17:25:16.007Z,1.03
2023-05-09T17:27:43.383Z,1.33
2023-05-09T17:30:09.723Z,1.07
2023-05-09T17:32:36.117Z,1.00
2023-05-09T17:35:02.699Z,1.08
2023-05-09T17:37:29.046Z,0.94
2023-05-09T17:39:55.496Z,1.12
2023-05-09T17:42:21.857Z,0.91
2023-05-09T17:44:53.386Z,1.02
2023-05-09T17:47:19.741Z,1.05
2023-05-09T17:49:54.022Z,1.06
2023-05-09T17:52:20.933Z,1.03
2023-05-09T17:54:47.535Z,0.93
2023-05-09T17:57:16.251Z,0.89
2023-05-09T17:59:42.628Z,0.70
2023-05-09T18:02:11.415Z,0.73
2023-05-09T18:04:38.188Z,0.79
2023-05-09T18:07:05.606Z,0.63
2023-05-09T18:09:32.111Z,0.54
2023-05-09T18:12:01.545Z,0.60
2023-05-09T18:14:27.896Z,0.61
2023-05-09T18:16:54.548Z,0.55
2023-05-09T18:19:20.954Z,0.51
2023-05-09T18:21:47.301Z,0.53
2023-05-09T18:24:16.906Z,0.47
2023-05-09T18:26:43.526Z,0.46
2023-05-09T18:29:12.902Z,0.49
2023-05-09T18:31:40.405Z,0.44
2023-05-09T18:34:06.988Z,0.43
2023-05-09T18:36:35.779Z,0.33
2023-05-09T18:39:04.934Z,0.32
2023-05-09T18:41:31.280Z,0.40
2023-05-09T18:43:57.718Z,0.32
2023-05-09T18:46:25.521Z,0.46
2023-05-09T18:48:52.290Z,0.38
2023-05-09T18:51:18.634Z,0.47
2023-05-09T18:53:48.290Z,0.41
2023-05-09T18:56:16.170Z,0.43
2023-05-09T18:58:44.589Z,0.30
2023-05-09T19:01:13.370Z,0.43
2023-05-09T19:03:49.516Z,0.43
2023-05-09T19:06:15.920Z,0.45
2023-05-09T19:08:43.553Z,0.35
2023-05-09T19:11:09.917Z,0.34
2023-05-09T19:13:36.342Z,0.34
2023-05-09T19:16:02.776Z,0.42
2023-05-09T19:18:33.288Z,0.35
2023-05-09T19:20:59.640Z,0.35
2023-05-09T19:23:25.940Z,0.39
2023-05-09T19:25:52.267Z,0.37
2023-05-09T19:28:18.640Z,0.38
2023-05-09T19:30:46.072Z,0.37
2023-05-09T19:33:17.157Z,0.40
2023-05-09T19:35:45.012Z,0.40
2023-05-09T19:38:18.728Z,0.30
2023-05-09T19:40:45.234Z,0.43
2023-05-09T19:43:12.243Z,0.35
2023-05-09T19:45:39.740Z,0.35
2023-05-09T19:48:06.566Z,0.28
2023-05-09T19:50:33.090Z,0.21
2023-05-09T19:52:59.850Z,0.31
2023-05-09T19:55:26.183Z,0.34
2023-05-09T19:57:52.522Z,0.31
2023-05-09T20:00:20.070Z,0.23
2023-05-09T20:02:46.485Z,0.33
2023-05-09T20:05:14.543Z,0.32
2023-05-09T20:07:40.834Z,0.32
2023-05-09T20:10:07.112Z,0.37
2023-05-09T20:12:33.408Z,0.29
2023-05-09T20:14:59.705Z,0.29
2023-05-09T20:17:25.989Z,0.32
2023-05-09T20:19:52.330Z,0.22
2023-05-09T20:22:18.617Z,0.23
2023-05-09T20:24:44.923Z,0.20
2023-05-09T20:27:11.846Z,0.21
2023-05-09T20:29:38.231Z,0.23
2023-05-09T20:32:09.193Z,0.24
2023-05-09T20:34:35.702Z,0.17
2023-05-09T20:37:02.226Z,0.19
2023-05-09T20:39:28.522Z,0.24
2023-05-09T20:41:55.297Z,0.17
2023-05-09T20:44:25.676Z,0.88
2023-05-09T20:46:51.983Z,0.77
2023-05-09T20:49:18.259Z,0.65
2023-05-09T20:51:44.565Z,0.30
2023-05-09T20:54:10.845Z,0.29
2023-05-09T20:56:37.139Z,0.20
2023-05-09T20:59:05.829Z,0.18
2023-05-09T21:01:32.662Z,0.20
2023-05-09T21:03:58.998Z,0.16
2023-05-09T21:06:25.585Z,0.14
2023-05-09T21:08:51.883Z,0.14
2023-05-09T21:11:19.202Z,0.21
2023-05-09T21:13:45.484Z,0.25
2023-05-09T21:16:13.840Z,0.21
2023-05-09T21:18:40.133Z,0.18
2023-05-09T21:21:06.404Z,0.14
2023-05-09T21:23:32.707Z,0.18
2023-05-09T21:25:59.488Z,0.18
2023-05-09T21:28:25.775Z,0.22
2023-05-09T21:30:53.147Z,0.20
2023-05-09T21:33:20.471Z,0.24
2023-05-09T21:35:46.765Z,0.18
2023-05-09T21:38:13.040Z,0.23
2023-05-09T21:40:41.658Z,0.18
2023-05-09T21:43:07.944Z,0.20
2023-05-09T21:45:34.238Z,0.19
2023-05-09T21:48:00.884Z,0.24
2023-05-09T21:50:28.219Z,0.26
2023-05-09T21:52:54.545Z,0.27
2023-05-09T21:55:20.844Z,0.30
2023-05-09T21:57:48.221Z,0.29
2023-05-09T22:00:14.711Z,0.28
2023-05-09T22:02:41.490Z,0.37
2023-05-09T22:05:07.848Z,0.32
2023-05-09T22:07:34.129Z,0.39
2023-05-09T22:10:02.754Z,0.32
2023-05-09T22:12:30.078Z,0.36
2023-05-09T22:14:57.004Z,0.35
2023-05-09T22:17:23.410Z,0.39
2023-05-09T22:19:52.543Z,0.29
2023-05-09T22:22:19.144Z,0.39
2023-05-09T22:24:45.437Z,0.36
2023-05-09T22:27:12.744Z,0.36
2023-05-09T22:29:39.252Z,0.37
2023-05-09T22:32:06.609Z,0.34
2023-05-09T22:34:34.409Z,0.31
2023-05-09T22:37:01.739Z,0.39
2023-05-09T22:39:28.376Z,0.45
2023-05-09T22:41:55.012Z,0.42
2023-05-09T22:44:21.561Z,0.38
2023-05-09T22:46:48.317Z,0.63
2023-05-09T22:49:14.787Z,0.59
2023-05-09T22:51:42.234Z,0.45
2023-05-09T22:54:08.844Z,0.43
2023-05-09T22:56:35.579Z,0.41
2023-05-09T22:59:01.995Z,0.43
2023-05-09T23:01:28.458Z,0.39
2023-05-09T23:03:54.859Z,0.43
2023-05-09T23:06:21.425Z,0.34
2023-05-09T23:08:49.920Z,0.36
2023-05-09T23:11:17.866Z,0.54
2023-05-09T23:13:44.469Z,0.45
2023-05-09T23:16:10.944Z,0.57
2023-05-09T23:18:37.684Z,0.46
2023-05-09T23:21:04.017Z,0.48
2023-05-09T23:23:30.345Z,0.53
2023-05-09T23:25:56.707Z,0.59
2023-05-09T23:28:23.042Z,0.53
2023-05-09T23:30:49.627Z,0.53
2023-05-09T23:33:16.983Z,0.60
2023-05-09T23:35:43.375Z,0.49
2023-05-09T23:38:09.756Z,0.52
2023-05-09T23:40:36.137Z,0.50
2023-05-09T23:43:02.509Z,0.51
2023-05-09T23:45:28.853Z,0.46
2023-05-09T23:47:55.261Z,0.51
2023-05-09T23:50:23.624Z,0.55
2023-05-09T23:52:49.985Z,0.62
2023-05-09T23:55:17.380Z,0.55
2023-05-09T23:57:44.644Z,0.49
